createdAt,value
2023-04-18T00:00:06.557Z,14.30
2023-04-18T00:02:55.716Z,13.07
2023-04-18T00:05:47.911Z,12.90
2023-04-18T00:08:36.378Z,12.87
2023-04-18T00:11:24.808Z,13.80
2023-04-18T00:14:13.748Z,12.50
2023-04-18T00:17:03.841Z,13.63
2023-04-18T00:19:52.925Z,13.77
2023-04-18T00:22:42.631Z,12.50
2023-04-18T00:25:31.443Z,12.07
2023-04-18T00:28:19.907Z,12.80
2023-04-18T00:31:08.568Z,14.67
2023-04-18T00:33:58.480Z,13.70
2023-04-18T00:36:46.988Z,13.90
2023-04-18T00:39:36.442Z,12.80
2023-04-18T00:42:25.939Z,14.27
2023-04-18T00:45:14.395Z,12.33
2023-04-18T00:48:03.389Z,11.97
2023-04-18T00:50:54.284Z,13.73
2023-04-18T00:53:43.099Z,13.40
2023-04-18T00:56:31.853Z,12.63
2023-04-18T00:59:20.406Z,13.77
2023-04-18T01:02:08.959Z,16.67
2023-04-18T01:04:58.540Z,13.83
2023-04-18T01:07:48.536Z,15.30
2023-04-18T01:10:37.322Z,16.77
2023-04-18T01:13:25.855Z,15.97
2023-04-18T01:16:14.433Z,17.23
2023-04-18T01:19:03.772Z,18.50
2023-04-18T01:21:54.203Z,17.60
2023-04-18T01:24:44.064Z,19.33
2023-04-18T01:27:32.547Z,19.40
2023-04-18T01:30:21.187Z,18.27
2023-04-18T01:33:09.711Z,19.67
2023-04-18T01:35:58.221Z,17.17
2023-04-18T01:38:46.746Z,17.60
2023-04-18T01:41:36.747Z,16.33
2023-04-18T01:44:25.235Z,15.73
2023-04-18T01:47:13.785Z,16.07
2023-04-18T01:50:02.971Z,16.63
2023-04-18T01:52:51.445Z,18.07
2023-04-18T01:55:39.864Z,16.13
2023-04-18T01:58:29.702Z,17.43
2023-04-18T02:01:18.262Z,16.83
2023-04-18T02:04:06.828Z,16.93
2023-04-18T02:06:55.572Z,17.10
2023-04-18T02:09:44.131Z,18.37
2023-04-18T02:12:34.206Z,18.03
2023-04-18T02:15:24.703Z,17.20
2023-04-18T02:18:13.256Z,17.80
2023-04-18T02:21:01.976Z,17.03
2023-04-18T02:23:50.994Z,16.90
2023-04-18T02:26:39.517Z,17.53
2023-04-18T02:29:28.003Z,17.50
2023-04-18T02:32:17.823Z,19.00
2023-04-18T02:35:06.870Z,17.60
2023-04-18T02:37:55.489Z,17.70
2023-04-18T02:40:43.977Z,17.43
2023-04-18T02:43:32.401Z,17.40
2023-04-18T02:46:21.226Z,17.20
2023-04-18T02:49:11.193Z,17.57
2023-04-18T02:51:59.693Z,17.80
2023-04-18T02:54:48.124Z,17.90
2023-04-18T02:57:36.593Z,18.10
2023-04-18T03:00:25.465Z,19.27
2023-04-18T03:03:13.954Z,17.73
2023-04-18T03:06:03.805Z,17.93
2023-04-18T03:08:52.279Z,18.03
2023-04-18T03:11:40.743Z,18.23
2023-04-18T03:14:29.203Z,17.50
2023-04-18T03:17:17.756Z,18.60
2023-04-18T03:20:08.010Z,18.13
2023-04-18T03:22:57.875Z,18.37
2023-04-18T03:25:46.334Z,18.10
2023-04-18T03:28:35.104Z,18.73
2023-04-18T03:31:23.579Z,18.00
2023-04-18T03:34:12.749Z,18.90
2023-04-18T03:37:01.493Z,17.60
2023-04-18T03:39:51.250Z,15.90
2023-04-18T03:42:39.789Z,17.70
2023-04-18T03:45:28.259Z,18.20
2023-04-18T03:48:16.792Z,16.07
2023-04-18T03:51:06.899Z,16.90
2023-04-18T03:53:55.467Z,15.63
2023-04-18T03:56:45.480Z,17.60
2023-04-18T03:59:33.966Z,16.40
2023-04-18T04:02:22.508Z,17.70
2023-04-18T04:05:11.114Z,16.37
2023-04-18T04:07:59.656Z,16.40
2023-04-18T04:10:48.069Z,17.10
2023-04-18T04:13:37.885Z,17.30
2023-04-18T04:16:26.452Z,15.43
2023-04-18T04:19:15.185Z,16.27
2023-04-18T04:22:03.592Z,15.83
2023-04-18T04:24:52.123Z,15.87
2023-04-18T04:27:42.751Z,15.60
2023-04-18T04:30:33.398Z,17.00
2023-04-18T04:33:25.107Z,17.50
2023-04-18T04:36:16.131Z,16.40
2023-04-18T04:39:05.834Z,16.00
2023-04-18T04:41:54.425Z,15.93
2023-04-18T04:44:43.012Z,15.33
2023-04-18T04:47:32.958Z,16.00
2023-04-18T04:50:21.668Z,16.10
2023-04-18T04:53:11.736Z,16.13
2023-04-18T04:56:00.289Z,15.67
2023-04-18T04:58:48.730Z,15.73
2023-04-18T05:01:37.281Z,17.80
2023-04-18T05:04:27.289Z,15.57
2023-04-18T05:07:16.084Z,15.80
2023-04-18T05:10:05.077Z,15.60
2023-04-18T05:12:53.583Z,15.63
2023-04-18T05:15:42.088Z,17.03
2023-04-18T05:18:31.204Z,15.87
2023-04-18T05:21:21.869Z,16.37
2023-04-18T05:24:10.626Z,16.13
2023-04-18T05:26:59.124Z,17.10
2023-04-18T05:29:49.368Z,15.60
2023-04-18T05:32:38.986Z,16.27
2023-04-18T05:35:27.508Z,16.50
2023-04-18T05:38:17.287Z,16.07
2023-04-18T05:41:05.851Z,17.20
2023-04-18T05:44:04.962Z,16.23
2023-04-18T05:47:05.668Z,17.03
2023-04-18T05:49:54.115Z,15.73
2023-04-18T05:52:42.628Z,15.60
2023-04-18T05:55:32.501Z,15.00
2023-04-18T05:58:20.977Z,15.50
2023-04-18T06:01:09.622Z,15.50
2023-04-18T06:03:58.358Z,15.83
2023-04-18T06:06:46.969Z,15.77
2023-04-18T06:09:35.789Z,16.30
2023-04-18T06:12:25.635Z,15.87
2023-04-18T06:15:14.164Z,16.57
2023-04-18T06:18:02.710Z,16.77
2023-04-18T06:20:51.615Z,16.37
2023-04-18T06:23:40.123Z,15.80
2023-04-18T06:26:28.657Z,16.80
2023-04-18T06:29:18.991Z,15.10
2023-04-18T06:32:07.604Z,16.63
2023-04-18T06:34:56.114Z,16.30
2023-04-18T06:37:44.899Z,15.93
2023-04-18T06:40:33.361Z,17.40
2023-04-18T06:43:22.517Z,15.50
2023-04-18T06:46:12.442Z,15.60
2023-04-18T06:49:01.063Z,16.30
2023-04-18T06:51:49.586Z,17.53
2023-04-18T06:54:38.076Z,18.07
2023-04-18T06:57:26.681Z,16.90
2023-04-18T07:00:16.356Z,15.60
2023-04-18T07:03:11.302Z,14.23
2023-04-18T07:06:00.317Z,15.27
2023-04-18T07:08:48.801Z,16.60
2023-04-18T07:11:37.312Z,15.80
2023-04-18T07:14:26.290Z,17.17
2023-04-18T07:17:14.911Z,16.40
2023-04-18T07:20:05.363Z,16.10
2023-04-18T07:22:53.902Z,17.50
2023-04-18T07:25:42.390Z,15.17
2023-04-18T07:28:32.037Z,16.90
2023-04-18T07:31:20.529Z,15.90
2023-04-18T07:34:09.152Z,16.97
2023-04-18T07:36:59.358Z,19.33
2023-04-18T07:39:48.545Z,16.87
2023-04-18T07:42:38.231Z,15.63
2023-04-18T07:45:27.106Z,16.50
2023-04-18T07:48:15.626Z,17.07
2023-04-18T07:51:04.519Z,15.77
2023-04-18T07:53:54.436Z,16.20
2023-04-18T07:56:42.887Z,17.50
2023-04-18T07:59:32.397Z,16.13
2023-04-18T08:02:21.514Z,16.67
2023-04-18T08:05:10.854Z,17.30
2023-04-18T08:07:59.620Z,14.63
2023-04-18T08:10:49.485Z,15.73
2023-04-18T08:13:37.930Z,15.50
2023-04-18T08:16:26.595Z,14.77
2023-04-18T08:19:15.377Z,15.57
2023-04-18T08:22:11.102Z,15.83
2023-04-18T08:25:05.093Z,15.47
2023-04-18T08:27:55.721Z,14.93
2023-04-18T08:30:48.613Z,14.93
2023-04-18T08:33:37.111Z,15.20
2023-04-18T08:36:25.961Z,15.30
2023-04-18T08:39:14.822Z,14.57
2023-04-18T08:42:04.450Z,15.90
2023-04-18T08:44:54.329Z,16.00
2023-04-18T08:47:43.191Z,16.67
2023-04-18T08:50:32.278Z,16.27
2023-04-18T08:53:21.050Z,16.20
2023-04-18T08:56:10.501Z,16.90
2023-04-18T08:59:00.261Z,17.30
2023-04-18T09:01:56.600Z,16.70
2023-04-18T09:04:49.157Z,17.00
2023-04-18T09:07:46.852Z,16.93
2023-04-18T09:10:36.549Z,16.50
2023-04-18T09:13:39.486Z,15.97
2023-04-18T09:16:29.239Z,15.00
2023-04-18T09:19:19.206Z,15.97
2023-04-18T09:22:09.846Z,15.30
2023-04-18T09:24:59.076Z,15.17
2023-04-18T09:27:47.620Z,16.33
2023-04-18T09:30:39.523Z,15.80
2023-04-18T09:33:29.311Z,15.97
2023-04-18T09:36:20.731Z,15.40
2023-04-18T09:39:09.339Z,16.30
2023-04-18T09:42:01.315Z,16.17
2023-04-18T09:45:00.790Z,16.00
2023-04-18T09:47:49.308Z,15.67
2023-04-18T09:50:40.247Z,16.50
2023-04-18T09:53:31.257Z,14.57
2023-04-18T09:56:24.698Z,15.20
2023-04-18T09:59:13.941Z,15.57
2023-04-18T10:02:04.087Z,17.77
2023-04-18T10:04:53.459Z,16.00
2023-04-18T10:07:42.979Z,16.97
2023-04-18T10:10:33.376Z,16.70
2023-04-18T10:13:21.993Z,14.53
2023-04-18T10:16:11.038Z,16.37
2023-04-18T10:19:23.030Z,15.93
2023-04-18T10:22:12.780Z,15.60
2023-04-18T10:25:01.384Z,14.67
2023-04-18T10:28:01.231Z,15.60
2023-04-18T10:30:55.099Z,15.20
2023-04-18T10:34:03.200Z,15.50
2023-04-18T10:37:05.337Z,15.90
2023-04-18T10:39:58.365Z,15.20
2023-04-18T10:43:00.426Z,15.53
2023-04-18T10:46:27.829Z,15.20
2023-04-18T10:49:21.961Z,15.07
2023-04-18T10:52:13.402Z,16.43
2023-04-18T10:55:17.539Z,14.07
2023-04-18T10:58:07.432Z,16.00
2023-04-18T11:00:56.139Z,14.50
2023-04-18T11:03:44.986Z,15.80
2023-04-18T11:06:33.541Z,14.77
2023-04-18T11:09:22.439Z,14.33
2023-04-18T11:12:12.058Z,13.63
2023-04-18T11:15:02.644Z,13.90
2023-04-18T11:17:59.375Z,14.70
2023-04-18T11:20:49.989Z,14.20
2023-04-18T11:23:38.558Z,13.40
2023-04-18T11:26:30.725Z,13.27
2023-04-18T11:29:19.230Z,14.13
2023-04-18T11:32:09.817Z,13.33
2023-04-18T11:34:58.372Z,13.23
2023-04-18T11:37:46.871Z,13.07
2023-04-18T11:40:35.595Z,13.97
2023-04-18T11:43:25.845Z,13.57
2023-04-18T11:46:14.708Z,13.60
2023-04-18T11:49:04.730Z,12.47
2023-04-18T11:51:53.616Z,13.80
2023-04-18T11:54:43.346Z,14.27
2023-04-18T11:57:32.935Z,13.27
2023-04-18T12:00:32.448Z,14.80
2023-04-18T12:03:22.569Z,12.77
2023-04-18T12:06:12.580Z,12.37
2023-04-18T12:09:01.319Z,12.07
2023-04-18T12:12:00.951Z,12.57
2023-04-18T12:14:50.865Z,13.40
2023-04-18T12:17:39.392Z,13.60
2023-04-18T12:20:36.357Z,12.47
2023-04-18T12:23:35.322Z,14.00
2023-04-18T12:26:23.868Z,13.87
2023-04-18T12:29:12.653Z,13.23
2023-04-18T12:32:01.566Z,12.60
2023-04-18T12:34:50.248Z,13.20
2023-04-18T12:37:38.720Z,12.60
2023-04-18T12:40:29.528Z,12.60
2023-04-18T12:43:18.345Z,12.60
2023-04-18T12:46:07.009Z,12.07
2023-04-18T12:48:57.116Z,11.20
2023-04-18T12:51:45.583Z,12.00
2023-04-18T12:54:36.154Z,12.10
2023-04-18T12:57:28.633Z,10.63
2023-04-18T13:00:18.639Z,11.03
2023-04-18T13:03:12.432Z,10.63
2023-04-18T13:06:01.709Z,11.17
2023-04-18T13:08:50.348Z,11.47
2023-04-18T13:11:38.819Z,9.63
2023-04-18T13:14:28.751Z,9.53
2023-04-18T13:17:17.307Z,9.30
2023-04-18T13:20:07.096Z,8.83
2023-04-18T13:22:55.703Z,9.07
2023-04-18T13:25:44.461Z,7.67
2023-04-18T13:28:33.491Z,8.50
2023-04-18T13:31:23.340Z,8.00
2023-04-18T13:34:11.738Z,8.10
2023-04-18T13:37:00.265Z,8.27
2023-04-18T13:39:48.826Z,8.23
2023-04-18T13:42:38.055Z,7.40
2023-04-18T13:45:26.580Z,8.50
2023-04-18T13:48:16.589Z,7.90
2023-04-18T13:51:05.763Z,9.10
2023-04-18T13:53:54.344Z,8.47
2023-04-18T13:56:43.304Z,8.60
2023-04-18T13:59:32.519Z,7.93
2023-04-18T14:02:21.294Z,7.30
2023-04-18T14:05:11.558Z,8.50
2023-04-18T14:08:03.709Z,8.00
2023-04-18T14:10:52.302Z,7.63
2023-04-18T14:13:40.801Z,8.13
2023-04-18T14:16:31.760Z,8.17
2023-04-18T14:19:20.973Z,8.33
2023-04-18T14:22:11.049Z,7.53
2023-04-18T14:24:59.645Z,8.10
2023-04-18T14:27:48.974Z,7.90
2023-04-18T14:30:37.690Z,7.50
2023-04-18T14:33:26.213Z,7.80
2023-04-18T14:36:16.901Z,7.03
2023-04-18T14:39:07.021Z,7.77
2023-04-18T14:41:55.914Z,7.90
2023-04-18T14:44:44.498Z,7.23
2023-04-18T14:47:34.571Z,7.10
2023-04-18T14:50:23.368Z,7.20
2023-04-18T14:53:13.859Z,7.60
2023-04-18T14:56:03.751Z,6.20
2023-04-18T14:58:52.238Z,7.33
2023-04-18T15:01:41.477Z,7.33
2023-04-18T15:04:30.076Z,6.83
2023-04-18T15:07:18.768Z,7.00
2023-04-18T15:10:08.620Z,7.17
2023-04-18T15:12:58.527Z,6.17
2023-04-18T15:15:52.512Z,7.00
2023-04-18T15:18:41.036Z,7.10
2023-04-18T15:21:29.593Z,6.33
2023-04-18T15:24:18.187Z,6.50
2023-04-18T15:27:07.706Z,7.37
2023-04-18T15:29:57.593Z,6.50
2023-04-18T15:32:46.103Z,6.77
2023-04-18T15:35:34.662Z,7.17
2023-04-18T15:38:23.186Z,6.20
2023-04-18T15:41:11.686Z,7.07
2023-04-18T15:44:00.258Z,6.37
2023-04-18T15:46:50.923Z,6.83
2023-04-18T15:49:39.391Z,6.80
2023-04-18T15:52:27.929Z,5.83
2023-04-18T15:55:16.473Z,6.50
2023-04-18T15:58:05.018Z,5.93
2023-04-18T16:00:53.514Z,6.03
2023-04-18T16:03:43.540Z,6.30
2023-04-18T16:06:32.237Z,6.30
2023-04-18T16:09:20.729Z,6.30
2023-04-18T16:12:09.260Z,6.47
2023-04-18T16:14:57.782Z,6.30
2023-04-18T16:17:46.803Z,6.03
2023-04-18T16:20:36.746Z,6.57
2023-04-18T16:23:26.145Z,7.03
2023-04-18T16:26:14.651Z,6.30
2023-04-18T16:29:03.150Z,6.43
2023-04-18T16:31:52.475Z,6.27
2023-04-18T16:34:41.098Z,7.10
2023-04-18T16:37:31.002Z,6.20
2023-04-18T16:40:19.518Z,6.80
2023-04-18T16:43:07.977Z,6.80
2023-04-18T16:45:57.607Z,6.40
2023-04-18T16:48:46.191Z,6.30
2023-04-18T16:51:36.184Z,6.73
2023-04-18T16:54:26.163Z,6.77
2023-04-18T16:57:14.828Z,5.90
2023-04-18T17:00:05.034Z,5.93
2023-04-18T17:02:55.658Z,6.03
2023-04-18T17:05:44.571Z,5.97
2023-04-18T17:08:33.737Z,6.13
2023-04-18T17:11:23.559Z,6.03
2023-04-18T17:14:12.372Z,6.97
2023-04-18T17:17:00.913Z,6.70
2023-04-18T17:19:49.411Z,6.07
2023-04-18T17:22:38.021Z,7.00
2023-04-18T17:25:26.588Z,8.10
2023-04-18T17:28:16.578Z,6.97
2023-04-18T17:31:05.611Z,7.27
2023-04-18T17:33:54.551Z,7.40
2023-04-18T17:36:43.130Z,7.70
2023-04-18T17:39:32.287Z,7.90
2023-04-18T17:42:21.206Z,8.30
2023-04-18T17:45:11.390Z,8.60
2023-04-18T17:48:02.158Z,7.50
2023-04-18T17:50:50.728Z,7.80
2023-04-18T17:53:39.246Z,8.60
2023-04-18T17:56:28.143Z,8.77
2023-04-18T17:59:16.977Z,8.30
2023-04-18T18:02:06.917Z,7.87
2023-04-18T18:04:56.286Z,7.37
2023-04-18T18:07:50.303Z,6.77
2023-04-18T18:10:39.535Z,7.53
2023-04-18T18:13:27.995Z,8.50
2023-04-18T18:16:16.520Z,8.23
2023-04-18T18:19:07.366Z,7.93
2023-04-18T18:21:56.018Z,8.43
2023-04-18T18:24:44.560Z,7.80
2023-04-18T18:27:33.676Z,7.27
2023-04-18T18:30:22.239Z,7.60
2023-04-18T18:33:10.835Z,7.40
2023-04-18T18:36:01.327Z,8.13
2023-04-18T18:38:49.857Z,8.60
2023-04-18T18:41:38.475Z,8.33
2023-04-18T18:44:27.208Z,8.37
2023-04-18T18:47:15.654Z,8.00
2023-04-18T18:50:04.414Z,8.30
2023-04-18T18:52:54.245Z,7.93
2023-04-18T18:55:42.757Z,8.37
2023-04-18T18:58:31.293Z,8.30
2023-04-18T19:01:20.542Z,8.20
2023-04-18T19:04:09.267Z,8.50
2023-04-18T19:06:57.966Z,8.13
2023-04-18T19:09:47.877Z,9.17
2023-04-18T19:12:36.359Z,8.13
2023-04-18T19:15:25.007Z,9.03
2023-04-18T19:18:13.736Z,8.07
2023-04-18T19:21:02.261Z,9.37
2023-04-18T19:23:50.817Z,8.33
2023-04-18T19:26:40.710Z,8.40
2023-04-18T19:29:31.913Z,8.90
2023-04-18T19:32:21.822Z,8.30
2023-04-18T19:35:13.146Z,8.80
2023-04-18T19:38:02.341Z,9.07
2023-04-18T19:40:50.892Z,9.17
2023-04-18T19:43:42.482Z,9.90
2023-04-18T19:46:31.141Z,10.07
2023-04-18T19:49:19.727Z,9.23
2023-04-18T19:52:08.196Z,9.17
2023-04-18T19:54:56.656Z,9.33
2023-04-18T19:57:45.148Z,9.60
2023-04-18T20:00:35.172Z,9.37
2023-04-18T20:03:23.770Z,9.97
2023-04-18T20:06:12.355Z,11.00
2023-04-18T20:09:01.350Z,11.70
2023-04-18T20:11:49.894Z,10.40
2023-04-18T20:14:38.353Z,11.30
2023-04-18T20:17:30.505Z,11.70
2023-04-18T20:20:19.109Z,13.13
2023-04-18T20:23:07.737Z,11.93
2023-04-18T20:25:59.355Z,11.77
2023-04-18T20:28:47.870Z,12.40
2023-04-18T20:31:41.683Z,12.47
2023-04-18T20:34:32.132Z,12.10
2023-04-18T20:37:20.706Z,13.50
2023-04-18T20:40:11.248Z,13.20
2023-04-18T20:43:03.068Z,12.70
2023-04-18T20:45:51.855Z,13.13
2023-04-18T20:48:40.489Z,13.27
2023-04-18T20:51:31.768Z,13.20
2023-04-18T20:54:20.245Z,12.93
2023-04-18T20:57:09.105Z,13.10
2023-04-18T20:59:58.663Z,12.83
2023-04-18T21:02:47.292Z,13.17
2023-04-18T21:05:35.912Z,12.80
2023-04-18T21:08:25.746Z,12.50
2023-04-18T21:11:14.221Z,13.60
2023-04-18T21:14:03.754Z,13.07
2023-04-18T21:16:52.201Z,13.77
2023-04-18T21:19:40.765Z,13.30
2023-04-18T21:22:29.285Z,13.73
2023-04-18T21:25:21.142Z,13.93
2023-04-18T21:28:09.664Z,14.33
2023-04-18T21:30:58.129Z,14.10
2023-04-18T21:33:46.655Z,14.17
2023-04-18T21:36:35.224Z,14.27
2023-04-18T21:39:23.696Z,13.53
2023-04-18T21:42:13.507Z,14.00
2023-04-18T21:45:02.155Z,15.27
2023-04-18T21:47:50.832Z,13.93
2023-04-18T21:50:39.301Z,14.60
2023-04-18T21:53:27.839Z,13.57
2023-04-18T21:56:16.992Z,13.97
2023-04-18T21:59:06.880Z,13.00
2023-04-18T22:01:55.484Z,14.80
2023-04-18T22:04:44.149Z,14.57
2023-04-18T22:07:33.327Z,14.97
2023-04-18T22:10:22.920Z,15.17
2023-04-18T22:13:11.477Z,14.87
2023-04-18T22:16:03.552Z,15.27
2023-04-18T22:18:52.173Z,15.40
2023-04-18T22:21:40.667Z,14.87
2023-04-18T22:24:29.120Z,14.37
2023-04-18T22:27:17.600Z,15.50
2023-04-18T22:30:07.197Z,16.20
2023-04-18T22:32:57.170Z,15.80
2023-04-18T22:35:45.875Z,16.23
2023-04-18T22:38:34.372Z,14.47
2023-04-18T22:41:22.869Z,16.63
2023-04-18T22:44:11.344Z,16.10
2023-04-18T22:46:59.803Z,14.50
2023-04-18T22:49:49.763Z,14.37
2023-04-18T22:52:38.192Z,15.70
2023-04-18T22:55:26.665Z,15.50
2023-04-18T22:58:15.278Z,13.57
2023-04-18T23:01:03.893Z,15.40
2023-04-18T23:03:52.470Z,16.10
2023-04-18T23:06:42.392Z,15.80
2023-04-18T23:09:31.837Z,15.50
2023-04-18T23:12:20.959Z,14.70
2023-04-18T23:15:09.953Z,16.80
2023-04-18T23:17:58.453Z,16.50
2023-04-18T23:20:47.023Z,16.80
2023-04-18T23:23:36.851Z,15.07
2023-04-18T23:26:25.447Z,14.50
2023-04-18T23:29:13.960Z,15.50
2023-04-18T23:32:02.408Z,14.63
2023-04-18T23:34:51.208Z,15.47
2023-04-18T23:37:39.738Z,15.40
2023-04-18T23:40:29.566Z,15.30
2023-04-18T23:43:17.986Z,17.53
2023-04-18T23:46:06.649Z,14.90
2023-04-18T23:48:55.176Z,14.53
2023-04-18T23:51:43.694Z,15.20
2023-04-18T23:54:32.174Z,15.10
2023-04-18T23:57:22.095Z,14.63
